createdAt,value
2023-01-25T00:00:45.965Z,104
2023-01-25T00:01:55.098Z,101.8
2023-01-25T00:03:04.349Z,102.53
2023-01-25T00:04:13.486Z,102.78
2023-01-25T00:05:22.545Z,102.53
2023-01-25T00:06:31.862Z,104.73
2023-01-25T00:07:41.052Z,101.07
2023-01-25T00:08:50.212Z,102.53
2023-01-25T00:09:59.368Z,103.27
2023-01-25T00:11:08.543Z,101.8
2023-01-25T00:12:17.738Z,102.53
2023-01-25T00:13:26.700Z,103.27
2023-01-25T00:14:35.056Z,102.53
2023-01-25T00:15:44.219Z,103.27
2023-01-25T00:16:53.405Z,101.8
2023-01-25T00:18:02.598Z,103.75
2023-01-25T00:19:11.769Z,102.05
2023-01-25T00:20:20.910Z,103.27
2023-01-25T00:21:29.997Z,103.75
2023-01-25T00:22:38.305Z,103.27
2023-01-25T00:23:46.531Z,101.8
2023-01-25T00:24:54.520Z,103.27
2023-01-25T00:26:02.730Z,104.98
2023-01-25T00:27:11.067Z,102.05
2023-01-25T00:28:19.280Z,105.71
2023-01-25T00:29:27.458Z,104.49
2023-01-25T00:30:35.671Z,101.8
2023-01-25T00:31:44.702Z,102.53
2023-01-25T00:32:53.943Z,105.22
2023-01-25T00:34:02.992Z,103.51
2023-01-25T00:35:12.355Z,103.75
2023-01-25T00:36:21.485Z,103.75
2023-01-25T00:37:30.711Z,103.27
2023-01-25T00:38:39.844Z,104
2023-01-25T00:39:49.092Z,104.73
2023-01-25T00:40:58.260Z,105.95
2023-01-25T00:42:07.328Z,105.95
2023-01-25T00:43:16.495Z,104.49
2023-01-25T00:44:25.546Z,104
2023-01-25T00:45:33.741Z,105.95
2023-01-25T00:46:43.026Z,105.71
2023-01-25T00:47:52.319Z,104
2023-01-25T00:49:01.405Z,103.27
2023-01-25T00:50:10.596Z,104.49
2023-01-25T00:51:19.766Z,99.85
2023-01-25T00:53:38.169Z,103.51
2023-01-25T00:54:46.325Z,102.29
2023-01-25T00:55:54.327Z,103.51
2023-01-25T00:57:03.773Z,103.27
2023-01-25T00:58:12.844Z,102.05
2023-01-25T00:59:21.998Z,102.53
2023-01-25T01:00:31.214Z,105.71
2023-01-25T01:01:40.369Z,103.02
2023-01-25T01:02:49.600Z,102.78
2023-01-25T01:03:58.757Z,104.24
2023-01-25T01:05:07.715Z,104.24
2023-01-25T01:06:17.108Z,103.02
2023-01-25T01:07:26.185Z,103.51
2023-01-25T01:09:44.672Z,102.78
2023-01-25T01:10:52.709Z,103.02
2023-01-25T01:12:01.775Z,103.75
2023-01-25T01:13:11.111Z,102.78
2023-01-25T01:14:20.369Z,102.53
2023-01-25T01:15:29.459Z,102.78
2023-01-25T01:16:38.622Z,98.87
2023-01-25T01:17:47.769Z,101.31
2023-01-25T01:18:57.043Z,102.53
2023-01-25T01:20:05.189Z,103.27
2023-01-25T01:21:13.468Z,102.78
2023-01-25T01:22:21.598Z,102.53
2023-01-25T01:23:29.781Z,102.53
2023-01-25T01:24:38.930Z,104
2023-01-25T01:25:48.034Z,105.22
2023-01-25T01:26:56.303Z,103.51
2023-01-25T01:28:04.436Z,104
2023-01-25T01:29:13.491Z,104
2023-01-25T01:30:22.858Z,103.75
2023-01-25T01:31:31.835Z,106.2
2023-01-25T01:32:41.064Z,104.73
2023-01-25T01:33:50.193Z,106.2
2023-01-25T01:34:59.355Z,105.22
2023-01-25T01:36:08.549Z,104
2023-01-25T01:37:17.829Z,105.71
2023-01-25T01:38:27.063Z,104
2023-01-25T01:39:36.156Z,105.71
2023-01-25T01:40:45.458Z,104
2023-01-25T01:41:54.463Z,104
2023-01-25T01:43:02.789Z,104
2023-01-25T01:45:21.023Z,102.53
2023-01-25T01:46:30.276Z,101.8
2023-01-25T01:47:39.466Z,103.27
2023-01-25T01:48:48.442Z,104.98
2023-01-25T01:49:57.621Z,101.56
2023-01-25T01:51:06.940Z,102.78
2023-01-25T01:52:15.205Z,101.8
2023-01-25T01:53:23.321Z,101.07
2023-01-25T01:54:32.439Z,101.31
2023-01-25T01:55:41.515Z,101.8
2023-01-25T01:56:50.838Z,103.27
2023-01-25T01:58:00.048Z,104
2023-01-25T01:59:09.036Z,103.27
2023-01-25T02:00:18.214Z,100.83
2023-01-25T02:01:27.597Z,103.27
2023-01-25T02:02:36.548Z,102.05
2023-01-25T02:03:45.718Z,101.31
2023-01-25T02:04:54.912Z,98.63
2023-01-25T02:06:04.070Z,100.34
2023-01-25T02:07:13.242Z,101.31
2023-01-25T02:08:21.440Z,100.09
2023-01-25T02:09:30.604Z,99.12
2023-01-25T02:10:39.983Z,101.56
2023-01-25T02:11:49.088Z,101.07
2023-01-25T02:12:58.129Z,99.85
2023-01-25T02:14:07.472Z,102.53
2023-01-25T02:16:25.639Z,99.36
2023-01-25T02:17:35.026Z,100.34
2023-01-25T02:18:43.158Z,97.41
2023-01-25T02:19:51.396Z,97.65
2023-01-25T02:20:59.393Z,96.43
2023-01-25T02:22:07.668Z,93.99
2023-01-25T02:23:16.935Z,96.43
2023-01-25T02:24:24.954Z,95.21
2023-01-25T02:25:33.349Z,94.23
2023-01-25T02:26:42.318Z,91.06
2023-01-25T02:27:51.490Z,94.23
2023-01-25T02:29:00.698Z,90.33
2023-01-25T02:30:09.842Z,89.35
2023-01-25T02:31:19.162Z,89.84
2023-01-25T02:32:28.370Z,89.35
2023-01-25T02:33:37.511Z,90.08
2023-01-25T02:34:46.705Z,89.35
2023-01-25T02:35:55.951Z,91.55
2023-01-25T02:37:04.989Z,89.59
2023-01-25T02:38:14.052Z,90.08
2023-01-25T02:39:23.237Z,90.57
2023-01-25T02:40:31.609Z,87.15
2023-01-25T02:41:40.785Z,89.11
2023-01-25T02:42:49.947Z,88.37
2023-01-25T02:43:58.996Z,88.62
2023-01-25T02:45:08.225Z,86.66
2023-01-25T02:46:17.377Z,87.15
2023-01-25T02:47:26.713Z,87.15
2023-01-25T02:48:34.834Z,86.91
2023-01-25T02:49:43.898Z,85.44
2023-01-25T02:50:52.038Z,86.91
2023-01-25T02:52:00.285Z,86.66
2023-01-25T02:53:08.443Z,86.91
2023-01-25T02:54:17.722Z,87.15
2023-01-25T02:55:26.872Z,85.69
2023-01-25T02:56:36.091Z,84.96
2023-01-25T02:57:45.226Z,86.18
2023-01-25T02:58:54.261Z,86.18
2023-01-25T03:00:03.584Z,86.18
2023-01-25T03:01:12.762Z,85.69
2023-01-25T03:02:21.764Z,89.84
2023-01-25T03:03:30.939Z,86.42
2023-01-25T03:04:40.257Z,86.91
2023-01-25T03:05:49.460Z,87.15
2023-01-25T03:06:58.464Z,88.86
2023-01-25T03:08:06.837Z,91.06
2023-01-25T03:09:15.826Z,94.72
2023-01-25T03:10:25.005Z,95.45
2023-01-25T03:11:34.215Z,95.45
2023-01-25T03:12:43.515Z,98.63
2023-01-25T03:13:52.532Z,97.65
2023-01-25T03:15:01.787Z,97.41
2023-01-25T03:16:09.894Z,99.6
2023-01-25T03:17:18.109Z,99.6
2023-01-25T03:18:26.274Z,101.8
2023-01-25T03:19:34.584Z,102.53
2023-01-25T03:20:43.794Z,102.05
2023-01-25T03:21:52.805Z,100.34
2023-01-25T03:23:02.183Z,101.07
2023-01-25T03:24:11.288Z,99.6
2023-01-25T03:25:20.335Z,100.34
2023-01-25T03:26:29.793Z,103.02
2023-01-25T03:27:38.755Z,102.05
2023-01-25T03:28:47.915Z,99.6
2023-01-25T03:29:57.187Z,99.6
2023-01-25T03:31:06.333Z,100.34
2023-01-25T03:32:15.555Z,98.87
2023-01-25T03:33:24.649Z,98.63
2023-01-25T03:34:32.900Z,104
2023-01-25T03:35:41.926Z,104.49
2023-01-25T03:36:51.079Z,106.44
2023-01-25T03:38:00.445Z,105.95
2023-01-25T03:39:09.413Z,104.24
2023-01-25T03:40:18.597Z,105.95
2023-01-25T03:41:27.985Z,104.73
2023-01-25T03:42:36.053Z,102.53
2023-01-25T03:43:44.184Z,102.29
2023-01-25T03:44:53.454Z,102.78
2023-01-25T03:46:02.656Z,103.02
2023-01-25T03:47:11.777Z,102.53
2023-01-25T03:48:19.990Z,100.34
2023-01-25T03:49:28.226Z,101.07
2023-01-25T03:50:37.392Z,98.38
2023-01-25T03:51:46.457Z,93.99
2023-01-25T03:52:55.582Z,90.82
2023-01-25T03:54:04.737Z,90.82
2023-01-25T03:55:14.052Z,93.5
2023-01-25T03:56:23.090Z,91.3
2023-01-25T03:57:32.268Z,92.77
2023-01-25T03:58:41.607Z,92.77
2023-01-25T03:59:50.850Z,92.04
2023-01-25T04:00:59.950Z,92.28
2023-01-25T04:02:09.139Z,92.77
2023-01-25T04:03:18.236Z,93.01
2023-01-25T04:04:26.323Z,97.41
2023-01-25T04:05:35.680Z,95.21
2023-01-25T04:06:44.710Z,93.75
2023-01-25T04:07:53.831Z,93.75
2023-01-25T04:09:03.185Z,94.72
2023-01-25T04:10:12.202Z,91.79
2023-01-25T04:11:21.435Z,91.79
2023-01-25T04:12:29.695Z,91.79
2023-01-25T04:13:37.890Z,95.7
2023-01-25T04:14:45.930Z,90.57
2023-01-25T04:15:54.127Z,91.3
2023-01-25T04:17:03.442Z,91.06
2023-01-25T04:18:12.593Z,89.59
2023-01-25T04:19:21.789Z,92.28
2023-01-25T04:20:30.913Z,92.28
2023-01-25T04:21:40.171Z,92.28
2023-01-25T04:22:49.323Z,91.06
2023-01-25T04:23:58.338Z,91.55
2023-01-25T04:25:07.599Z,88.86
2023-01-25T04:26:16.691Z,88.13
2023-01-25T04:27:26.073Z,90.08
2023-01-25T04:28:35.025Z,89.59
2023-01-25T04:29:44.194Z,88.62
2023-01-25T04:30:52.384Z,90.08
2023-01-25T04:32:01.600Z,90.57
2023-01-25T04:33:10.906Z,89.35
2023-01-25T04:34:20.084Z,88.86
2023-01-25T04:35:29.236Z,91.55
2023-01-25T04:36:38.487Z,91.3
2023-01-25T04:37:47.647Z,90.08
2023-01-25T04:38:55.745Z,90.33
2023-01-25T04:40:03.900Z,87.64
2023-01-25T04:41:13.184Z,88.37
2023-01-25T04:42:22.276Z,89.35
2023-01-25T04:43:31.469Z,88.86
2023-01-25T04:44:40.641Z,87.64
2023-01-25T04:45:49.792Z,87.89
2023-01-25T04:46:59.150Z,86.91
2023-01-25T04:48:08.207Z,86.18
2023-01-25T04:49:17.258Z,87.89
2023-01-25T04:50:26.536Z,88.37
2023-01-25T04:51:35.568Z,87.64
2023-01-25T04:52:44.708Z,88.62
2023-01-25T04:53:54.064Z,88.62
2023-01-25T04:55:02.156Z,89.35
2023-01-25T04:56:11.385Z,89.59
2023-01-25T04:57:20.479Z,90.08
2023-01-25T04:58:29.722Z,89.11
2023-01-25T04:59:38.963Z,91.55
2023-01-25T05:00:47.965Z,90.33
2023-01-25T05:01:57.340Z,90.08
2023-01-25T05:03:05.485Z,91.55
2023-01-25T05:04:13.507Z,91.3
2023-01-25T05:05:21.867Z,91.55
2023-01-25T05:06:30.029Z,90.82
2023-01-25T05:07:39.055Z,102.78
2023-01-25T05:08:47.480Z,95.45
2023-01-25T05:09:56.425Z,96.19
2023-01-25T05:11:04.741Z,96.19
2023-01-25T05:12:13.830Z,93.99
2023-01-25T05:13:22.977Z,96.19
2023-01-25T05:14:31.349Z,95.45
2023-01-25T05:16:49.493Z,98.63
2023-01-25T05:17:58.857Z,99.12
2023-01-25T05:19:07.835Z,100.83
2023-01-25T05:20:17.017Z,101.8
2023-01-25T05:21:26.223Z,102.29
2023-01-25T05:22:35.358Z,104.49
2023-01-25T05:23:44.660Z,103.75
2023-01-25T05:24:53.875Z,104.49
2023-01-25T05:26:03.110Z,105.95
2023-01-25T05:27:12.230Z,103.51
2023-01-25T05:28:21.230Z,103.75
2023-01-25T05:29:29.632Z,103.27
2023-01-25T05:30:38.784Z,103.27
2023-01-25T05:31:47.759Z,102.05
2023-01-25T05:32:57.058Z,103.27
2023-01-25T05:34:05.354Z,103.02
2023-01-25T05:35:13.463Z,102.05
2023-01-25T05:36:22.635Z,101.8
2023-01-25T05:37:30.881Z,102.29
2023-01-25T05:38:39.073Z,104
2023-01-25T05:39:48.234Z,101.56
2023-01-25T05:40:57.336Z,100.58
2023-01-25T05:42:06.582Z,104.24
2023-01-25T05:43:15.662Z,101.8
2023-01-25T05:44:24.948Z,101.31
2023-01-25T05:45:34.044Z,102.05
2023-01-25T05:46:43.254Z,103.51
2023-01-25T05:47:52.421Z,101.07
2023-01-25T05:49:01.483Z,100.34
2023-01-25T05:50:10.734Z,101.07
2023-01-25T05:51:19.909Z,101.8
2023-01-25T05:52:29.083Z,101.8
2023-01-25T05:53:37.137Z,102.05
2023-01-25T05:54:46.434Z,101.31
2023-01-25T05:55:55.490Z,100.58
2023-01-25T05:57:04.834Z,99.12
2023-01-25T05:58:13.986Z,101.31
2023-01-25T05:59:23.179Z,103.02
2023-01-25T06:00:32.348Z,101.31
2023-01-25T06:01:40.365Z,101.31
2023-01-25T06:02:48.725Z,100.58
2023-01-25T06:03:56.891Z,99.6
2023-01-25T06:05:06.105Z,102.29
2023-01-25T06:06:14.381Z,102.29
2023-01-25T06:07:23.290Z,100.34
2023-01-25T06:08:32.459Z,102.29
2023-01-25T06:09:41.637Z,102.53
2023-01-25T06:10:50.999Z,103.02
2023-01-25T06:12:00.193Z,106.44
2023-01-25T06:13:09.319Z,105.95
2023-01-25T06:14:18.517Z,104.49
2023-01-25T06:15:27.567Z,105.71
2023-01-25T06:16:36.826Z,106.44
2023-01-25T06:17:45.997Z,104.98
2023-01-25T06:18:55.148Z,107.91
2023-01-25T06:20:04.208Z,109.86
2023-01-25T06:21:12.425Z,110.59
2023-01-25T06:22:21.695Z,103.02
2023-01-25T06:23:30.886Z,109.86
2023-01-25T06:24:40.086Z,104.49
2023-01-25T06:25:49.103Z,102.53
2023-01-25T06:26:58.401Z,103.75
2023-01-25T06:28:06.714Z,101.56
2023-01-25T06:29:14.756Z,102.29
2023-01-25T06:30:23.966Z,102.05
2023-01-25T06:31:33.169Z,104
2023-01-25T06:32:42.362Z,101.8
2023-01-25T06:33:51.510Z,102.29
2023-01-25T06:35:00.639Z,101.07
2023-01-25T06:36:09.819Z,103.02
2023-01-25T06:37:19.049Z,101.8
2023-01-25T06:38:28.170Z,100.58
2023-01-25T06:39:37.345Z,101.31
2023-01-25T06:40:46.498Z,102.78
2023-01-25T06:41:55.718Z,102.53
2023-01-25T06:43:04.820Z,104
2023-01-25T06:44:12.948Z,103.51
2023-01-25T06:45:22.255Z,101.56
2023-01-25T06:46:31.441Z,104.98
2023-01-25T06:47:40.557Z,103.02
2023-01-25T06:48:49.749Z,102.53
2023-01-25T06:49:58.937Z,102.78
2023-01-25T06:51:08.103Z,116.69
2023-01-25T06:52:16.372Z,115.23
2023-01-25T06:53:24.445Z,105.46
2023-01-25T06:54:32.774Z,103.27
2023-01-25T06:55:40.763Z,103.27
2023-01-25T06:56:49.874Z,104
2023-01-25T06:57:59.229Z,103.02
2023-01-25T06:59:08.418Z,102.78
2023-01-25T07:00:17.673Z,102.78
2023-01-25T07:01:26.747Z,104.24
2023-01-25T07:02:35.884Z,101.8
2023-01-25T07:03:44.929Z,101.8
2023-01-25T07:04:54.087Z,103.51
2023-01-25T07:06:03.421Z,103.02
2023-01-25T07:07:12.433Z,104.49
2023-01-25T07:08:21.841Z,102.53
2023-01-25T07:09:30.946Z,104.49
2023-01-25T07:10:38.978Z,104.49
2023-01-25T07:11:48.136Z,104.24
2023-01-25T07:12:57.489Z,101.8
2023-01-25T07:14:06.476Z,104.24
2023-01-25T07:15:15.787Z,102.78
2023-01-25T07:16:24.987Z,104.24
2023-01-25T07:17:34.001Z,103.75
2023-01-25T07:18:42.291Z,102.53
2023-01-25T07:19:50.390Z,102.78
2023-01-25T07:20:58.574Z,103.51
2023-01-25T07:22:07.020Z,103.51
2023-01-25T07:23:16.116Z,105.71
2023-01-25T07:24:25.292Z,107.42
2023-01-25T07:25:34.417Z,105.71
2023-01-25T07:26:43.544Z,105.22
2023-01-25T07:27:52.784Z,105.22
2023-01-25T07:29:02.008Z,104.49
2023-01-25T07:30:11.087Z,105.22
2023-01-25T07:31:20.297Z,103.75
2023-01-25T07:32:29.468Z,106.44
2023-01-25T07:33:38.535Z,109.61
2023-01-25T07:34:47.740Z,105.71
2023-01-25T07:35:56.984Z,105.95
2023-01-25T07:37:05.230Z,107.91
2023-01-25T07:38:14.238Z,106.68
2023-01-25T07:39:23.523Z,107.42
2023-01-25T07:40:32.664Z,107.17
2023-01-25T07:41:41.873Z,109.61
2023-01-25T07:42:50.901Z,112.79
2023-01-25T07:44:00.222Z,113.03
2023-01-25T07:45:08.294Z,116.45
2023-01-25T07:46:16.657Z,115.23
2023-01-25T07:47:24.658Z,115.23
2023-01-25T07:48:33.013Z,114.5
2023-01-25T07:49:42.180Z,112.79
2023-01-25T07:50:51.191Z,111.32
2023-01-25T07:52:00.525Z,112.54
2023-01-25T07:53:09.606Z,111.32
2023-01-25T07:54:18.705Z,112.06
2023-01-25T07:55:27.972Z,110.59
2023-01-25T07:56:37.051Z,110.35
2023-01-25T07:57:46.333Z,109.37
2023-01-25T07:58:55.631Z,111.08
2023-01-25T08:00:04.574Z,111.81
2023-01-25T08:01:13.747Z,111.81
2023-01-25T08:02:22.925Z,113.03
2023-01-25T08:03:31.197Z,111.57
2023-01-25T08:04:40.437Z,113.76
2023-01-25T08:05:49.569Z,112.3
2023-01-25T08:06:58.812Z,112.3
2023-01-25T08:08:07.856Z,112.54
2023-01-25T08:09:17.151Z,111.32
2023-01-25T08:10:26.156Z,111.57
2023-01-25T08:11:34.475Z,112.54
2023-01-25T08:12:42.683Z,110.59
2023-01-25T08:13:51.869Z,109.86
2023-01-25T08:15:00.881Z,112.06
2023-01-25T08:16:10.243Z,109.37
2023-01-25T08:17:19.408Z,109.13
2023-01-25T08:18:28.399Z,108.39
2023-01-25T08:19:37.744Z,108.64
2023-01-25T08:20:46.743Z,108.64
2023-01-25T08:21:56.087Z,107.91
2023-01-25T08:23:05.304Z,108.88
2023-01-25T08:24:14.422Z,107.91
2023-01-25T08:25:23.599Z,108.15
2023-01-25T08:26:32.598Z,108.88
2023-01-25T08:27:40.966Z,108.64
2023-01-25T08:28:49.972Z,109.13
2023-01-25T08:29:59.320Z,109.13
2023-01-25T08:31:08.522Z,109.61
2023-01-25T08:32:17.493Z,110.35
2023-01-25T08:33:26.665Z,109.37
2023-01-25T08:34:35.990Z,110.59
2023-01-25T08:35:44.212Z,108.39
2023-01-25T08:36:52.251Z,109.13
2023-01-25T08:38:00.540Z,109.86
2023-01-25T08:39:08.775Z,110.1
2023-01-25T08:40:17.950Z,110.59
2023-01-25T08:41:26.218Z,109.61
2023-01-25T08:42:34.174Z,110.59
2023-01-25T08:43:43.328Z,109.37
2023-01-25T08:44:52.687Z,112.54
2023-01-25T08:46:01.747Z,111.08
2023-01-25T08:47:11.015Z,110.35
2023-01-25T08:48:20.191Z,110.1
2023-01-25T08:49:29.392Z,109.61
2023-01-25T08:50:38.577Z,110.1
2023-01-25T08:51:47.679Z,110.83
2023-01-25T08:52:56.819Z,112.3
2023-01-25T08:54:06.107Z,110.1
2023-01-25T08:55:15.182Z,109.86
2023-01-25T08:56:24.378Z,109.13
2023-01-25T08:57:32.441Z,109.61
2023-01-25T08:58:41.657Z,111.08
2023-01-25T08:59:51.020Z,110.83
2023-01-25T09:01:00.064Z,108.64
2023-01-25T09:02:09.289Z,104.49
2023-01-25T09:03:18.422Z,103.75
2023-01-25T09:04:27.470Z,101.31
2023-01-25T09:05:36.849Z,100.09
2023-01-25T09:06:44.841Z,102.29
2023-01-25T09:07:53.051Z,98.87
2023-01-25T09:09:01.466Z,102.78
2023-01-25T09:10:09.490Z,100.09
2023-01-25T09:11:18.898Z,101.07
2023-01-25T09:12:27.953Z,105.22
2023-01-25T09:13:36.937Z,110.1
2023-01-25T09:14:46.248Z,115.47
2023-01-25T09:15:55.286Z,116.69
2023-01-25T09:17:04.501Z,117.67
2023-01-25T09:18:13.635Z,119.14
2023-01-25T09:19:22.991Z,117.18
2023-01-25T09:20:32.060Z,114.99
2023-01-25T09:21:41.145Z,116.69
2023-01-25T09:22:50.477Z,113.52
2023-01-25T09:23:59.587Z,113.76
2023-01-25T09:25:07.815Z,113.76
2023-01-25T09:26:17.017Z,113.76
2023-01-25T09:27:26.225Z,111.57
2023-01-25T09:28:35.209Z,110.83
2023-01-25T09:29:44.375Z,107.91
2023-01-25T09:30:53.665Z,108.39
2023-01-25T09:32:02.946Z,109.13
2023-01-25T09:33:11.090Z,109.13
2023-01-25T09:34:19.129Z,109.13
2023-01-25T09:35:27.424Z,111.32
2023-01-25T09:36:35.698Z,110.59
2023-01-25T09:37:44.800Z,110.59
2023-01-25T09:38:54.007Z,109.86
2023-01-25T09:40:03.000Z,111.81
2023-01-25T09:41:12.350Z,110.35
2023-01-25T09:42:21.507Z,109.86
2023-01-25T09:43:30.621Z,111.32
2023-01-25T09:44:39.773Z,109.13
2023-01-25T09:45:48.930Z,111.81
2023-01-25T09:46:58.062Z,106.93
2023-01-25T09:48:07.339Z,107.66
2023-01-25T09:49:16.492Z,109.13
2023-01-25T09:50:25.578Z,109.86
2023-01-25T09:51:33.849Z,107.17
2023-01-25T09:52:43.080Z,110.1
2023-01-25T09:53:52.117Z,110.1
2023-01-25T09:55:01.443Z,107.91
2023-01-25T09:56:10.462Z,107.91
2023-01-25T09:57:19.796Z,108.39
2023-01-25T09:58:28.984Z,109.13
2023-01-25T09:59:36.991Z,109.37
2023-01-25T10:00:45.274Z,108.88
2023-01-25T10:01:54.413Z,109.13
2023-01-25T10:03:03.629Z,109.13
2023-01-25T10:04:11.892Z,112.06
2023-01-25T10:05:20.152Z,110.59
2023-01-25T10:06:29.082Z,109.61
2023-01-25T10:07:38.381Z,109.61
2023-01-25T10:08:47.581Z,111.57
2023-01-25T10:09:56.689Z,109.86
2023-01-25T10:11:05.906Z,109.86
2023-01-25T10:12:15.112Z,108.39
2023-01-25T10:13:24.257Z,107.17
2023-01-25T10:14:33.442Z,107.66
2023-01-25T10:15:42.465Z,106.93
2023-01-25T10:16:51.761Z,105.71
2023-01-25T10:18:00.959Z,104.73
2023-01-25T10:19:10.117Z,105.71
2023-01-25T10:20:18.180Z,103.27
2023-01-25T10:21:27.595Z,103.75
2023-01-25T10:22:36.704Z,103.27
2023-01-25T10:23:45.877Z,105.71
2023-01-25T10:24:54.993Z,108.39
2023-01-25T10:26:04.174Z,107.91
2023-01-25T10:27:13.232Z,107.66
2023-01-25T10:28:21.428Z,107.66
2023-01-25T10:29:29.732Z,108.15
2023-01-25T10:30:37.979Z,109.37
2023-01-25T10:31:46.129Z,108.15
2023-01-25T10:32:55.351Z,110.59
2023-01-25T10:34:04.464Z,114.01
2023-01-25T10:35:13.632Z,111.08
2023-01-25T10:36:22.857Z,113.28
2023-01-25T10:37:32.119Z,112.06
2023-01-25T10:38:41.014Z,112.06
2023-01-25T10:39:50.220Z,112.06
2023-01-25T10:40:59.477Z,113.03
2023-01-25T10:42:08.556Z,114.99
2023-01-25T10:43:17.888Z,113.28
2023-01-25T10:44:26.933Z,110.35
2023-01-25T10:45:36.226Z,109.86
2023-01-25T10:46:44.353Z,111.57
2023-01-25T10:47:53.540Z,110.83
2023-01-25T10:49:02.818Z,108.88
2023-01-25T10:50:11.882Z,110.83
2023-01-25T10:51:20.941Z,111.08
2023-01-25T10:52:30.227Z,109.61
2023-01-25T10:53:39.293Z,113.76
2023-01-25T10:54:47.544Z,111.32
2023-01-25T10:55:55.827Z,110.59
2023-01-25T10:57:04.843Z,109.61
2023-01-25T10:58:13.098Z,110.59
2023-01-25T10:59:21.265Z,110.83
2023-01-25T11:00:30.412Z,111.08
2023-01-25T11:01:39.742Z,108.64
2023-01-25T11:02:48.757Z,109.13
2023-01-25T11:03:57.915Z,108.88
2023-01-25T11:05:07.247Z,109.13
2023-01-25T11:06:16.378Z,110.59
2023-01-25T11:07:25.444Z,110.1
2023-01-25T11:08:34.611Z,110.83
2023-01-25T11:09:43.907Z,107.66
2023-01-25T11:10:53.149Z,108.15
2023-01-25T11:12:02.132Z,110.83
2023-01-25T11:13:11.427Z,107.91
2023-01-25T11:14:19.579Z,110.1
2023-01-25T11:15:28.711Z,110.35
2023-01-25T11:16:37.913Z,110.1
2023-01-25T11:17:47.048Z,108.39
2023-01-25T11:18:56.413Z,110.83
2023-01-25T11:20:05.559Z,108.64
2023-01-25T11:21:14.554Z,109.61
2023-01-25T11:22:22.727Z,110.59
2023-01-25T11:23:31.043Z,109.86
2023-01-25T11:24:40.204Z,113.03
2023-01-25T11:25:49.350Z,110.1
2023-01-25T11:26:58.609Z,106.44
2023-01-25T11:28:07.645Z,108.15
2023-01-25T11:29:16.904Z,109.86
2023-01-25T11:30:25.986Z,110.59
2023-01-25T11:31:35.288Z,109.13
2023-01-25T11:33:53.485Z,110.35
2023-01-25T11:35:02.847Z,111.81
2023-01-25T11:36:11.819Z,109.86
2023-01-25T11:37:21.164Z,113.76
2023-01-25T11:38:29.314Z,110.1
2023-01-25T11:39:38.494Z,108.64
2023-01-25T11:40:47.614Z,109.13
2023-01-25T11:41:56.863Z,109.13
2023-01-25T11:43:06.032Z,107.66
2023-01-25T11:44:15.097Z,119.62
2023-01-25T11:45:24.228Z,108.64
2023-01-25T11:46:33.398Z,109.61
2023-01-25T11:47:41.740Z,109.13
2023-01-25T11:48:49.783Z,114.25
2023-01-25T11:49:59.078Z,109.61
2023-01-25T11:51:08.158Z,108.64
2023-01-25T11:52:16.423Z,110.35
2023-01-25T11:53:24.519Z,112.3
2023-01-25T11:54:33.671Z,113.28
2023-01-25T11:55:42.924Z,113.52
2023-01-25T11:56:52.035Z,109.61
2023-01-25T11:58:01.326Z,111.81
2023-01-25T11:59:10.519Z,114.99
2023-01-25T12:00:19.575Z,111.81
2023-01-25T12:01:28.718Z,113.03
2023-01-25T12:02:37.890Z,113.28
2023-01-25T12:03:47.065Z,113.28
2023-01-25T12:04:56.244Z,113.28
2023-01-25T12:06:05.418Z,116.45
2023-01-25T12:07:14.584Z,115.96
2023-01-25T12:08:22.774Z,114.99
2023-01-25T12:09:31.957Z,113.52
2023-01-25T12:10:41.129Z,112.06
2023-01-25T12:11:50.319Z,112.3
2023-01-25T12:12:59.467Z,123.77
2023-01-25T12:14:08.655Z,112.79
2023-01-25T12:15:17.804Z,113.52
2023-01-25T12:16:26.007Z,111.08
2023-01-25T12:17:34.200Z,112.79
2023-01-25T12:18:43.362Z,114.25
2023-01-25T12:19:51.579Z,112.79
2023-01-25T12:20:59.753Z,110.35
2023-01-25T12:22:08.945Z,112.3
2023-01-25T12:23:18.095Z,114.5
2023-01-25T12:24:27.266Z,114.01
2023-01-25T12:25:36.448Z,116.21
2023-01-25T12:26:45.611Z,124.02
2023-01-25T12:27:54.791Z,115.47
2023-01-25T12:29:04.065Z,112.79
2023-01-25T12:30:13.135Z,127.92
2023-01-25T12:31:22.313Z,127.92
2023-01-25T12:32:31.487Z,112.79
2023-01-25T12:33:40.656Z,111.57
2023-01-25T12:34:49.830Z,134.27
2023-01-25T12:35:58.010Z,135
2023-01-25T12:38:16.359Z,111.32
2023-01-25T12:39:25.534Z,110.59
2023-01-25T12:40:34.711Z,112.06
2023-01-25T12:41:43.881Z,123.77
2023-01-25T12:42:53.049Z,116.45
2023-01-25T12:44:02.225Z,112.79
2023-01-25T12:45:10.458Z,113.52
2023-01-25T12:46:18.611Z,112.3
2023-01-25T12:47:27.793Z,112.06
2023-01-25T12:48:36.984Z,115.23
2023-01-25T12:49:45.156Z,129.15
2023-01-25T12:50:53.408Z,111.32
2023-01-25T12:52:02.521Z,113.28
2023-01-25T12:53:11.686Z,111.81
2023-01-25T12:54:20.865Z,111.81
2023-01-25T12:55:30.046Z,112.06
2023-01-25T12:56:39.237Z,111.57
2023-01-25T12:57:47.410Z,110.1
2023-01-25T12:58:56.587Z,113.28
2023-01-25T13:00:05.751Z,110.83
2023-01-25T13:01:14.935Z,109.61
2023-01-25T13:02:24.094Z,109.61
2023-01-25T13:03:33.264Z,109.13
2023-01-25T13:04:42.447Z,110.35
2023-01-25T13:05:51.671Z,109.86
2023-01-25T13:07:00.791Z,109.13
2023-01-25T13:08:09.960Z,109.61
2023-01-25T13:09:19.147Z,110.59
2023-01-25T13:10:28.306Z,106.93
2023-01-25T13:11:37.512Z,113.03
2023-01-25T13:12:45.681Z,106.2
2023-01-25T13:13:53.869Z,107.91
2023-01-25T13:15:02.076Z,108.88
2023-01-25T13:16:10.270Z,112.79
2023-01-25T13:17:18.447Z,110.1
2023-01-25T13:18:27.715Z,107.17
2023-01-25T13:19:36.788Z,117.18
2023-01-25T13:20:45.973Z,109.13
2023-01-25T13:21:55.145Z,108.39
2023-01-25T13:23:04.309Z,106.93
2023-01-25T13:24:13.483Z,110.1
2023-01-25T13:25:22.806Z,108.64
2023-01-25T13:26:31.834Z,111.57
2023-01-25T13:27:41.021Z,109.86
2023-01-25T13:28:50.173Z,107.42
2023-01-25T13:29:59.347Z,108.39
2023-01-25T13:31:08.508Z,106.44
2023-01-25T13:32:16.739Z,108.88
2023-01-25T13:33:25.943Z,107.91
2023-01-25T13:34:35.064Z,109.61
2023-01-25T13:35:44.234Z,109.13
2023-01-25T13:36:53.390Z,107.66
2023-01-25T13:38:02.649Z,114.5
2023-01-25T13:39:11.759Z,108.88
2023-01-25T13:40:19.955Z,108.88
2023-01-25T13:41:28.191Z,107.17
2023-01-25T13:42:37.328Z,110.59
2023-01-25T13:43:46.684Z,108.64
2023-01-25T13:44:55.680Z,108.39
2023-01-25T13:46:04.822Z,107.17
2023-01-25T13:47:13.999Z,108.64
2023-01-25T13:48:23.193Z,111.08
2023-01-25T13:49:32.351Z,109.37
2023-01-25T13:50:41.717Z,108.88
2023-01-25T13:51:50.712Z,108.88
2023-01-25T13:52:59.943Z,108.88
2023-01-25T13:54:09.206Z,109.13
2023-01-25T13:55:18.363Z,108.88
2023-01-25T13:56:26.608Z,106.2
2023-01-25T13:57:35.728Z,104.49
2023-01-25T13:58:44.794Z,104.24
2023-01-25T13:59:53.925Z,104.49
2023-01-25T14:01:03.288Z,102.53
2023-01-25T14:02:12.430Z,101.31
2023-01-25T14:03:21.611Z,104.24
2023-01-25T14:04:29.686Z,102.05
2023-01-25T14:05:37.884Z,102.53
2023-01-25T14:06:46.157Z,102.53
2023-01-25T14:07:54.216Z,101.07
2023-01-25T14:09:02.605Z,102.53
2023-01-25T14:10:10.598Z,102.05
2023-01-25T14:11:19.778Z,101.31
2023-01-25T14:12:28.996Z,103.27
2023-01-25T14:13:38.124Z,103.02
2023-01-25T14:14:47.284Z,104.24
2023-01-25T14:15:56.480Z,104.24
2023-01-25T14:17:05.742Z,104.73
2023-01-25T14:18:14.834Z,107.17
2023-01-25T14:19:23.975Z,107.17
2023-01-25T14:20:33.153Z,108.39
2023-01-25T14:21:42.331Z,107.66
2023-01-25T14:22:51.505Z,108.39
2023-01-25T14:24:00.680Z,109.61
2023-01-25T14:26:18.056Z,108.88
2023-01-25T14:27:27.210Z,110.83
2023-01-25T14:28:36.408Z,109.86
2023-01-25T14:29:45.561Z,114.01
2023-01-25T14:30:54.738Z,115.72
2023-01-25T14:32:03.897Z,110.59
2023-01-25T14:33:13.076Z,111.57
2023-01-25T14:34:21.410Z,113.52
2023-01-25T14:35:29.454Z,113.52
2023-01-25T14:36:38.667Z,113.03
2023-01-25T14:37:47.810Z,113.28
2023-01-25T14:38:56.028Z,114.01